Time;durP1;ratioP1;P1;durP2;ratioP2;P2;SDS_P1;SDS_P2;PMS_P1;PMS_P2;Temp;Humidity;BMP_temperature;BMP_pressure;BME280_temperature;BME280_humidity;BME280_pressure;Samples;Min_cycle;Max_cycle;Signal;HPM_P1;HPM_P2
2021/07/29 00:01:12;;;;;;;6.00;4.53;;;19.60;99.90;;;;;;5095926;28;20453;-81
2021/07/29 00:03:39;;;;;;;4.10;3.80;;;19.60;99.90;;;;;;5098949;28;20788;-82
2021/07/29 00:06:06;;;;;;;5.53;3.83;;;19.60;99.90;;;;;;5101250;28;20458;-81
2021/07/29 00:08:33;;;;;;;4.30;3.90;;;19.60;99.90;;;;;;5099286;28;20473;-81
2021/07/29 00:11:00;;;;;;;5.60;4.23;;;19.60;99.90;;;;;;5097543;28;20506;-83
2021/07/29 00:13:28;;;;;;;3.90;3.60;;;19.60;99.90;;;;;;5096838;28;20485;-81
2021/07/29 00:15:58;;;;;;;5.97;3.90;;;19.60;99.90;;;;;;5091332;28;20458;-81
2021/07/29 00:21:09;;;;;;;4.67;4.13;;;19.60;99.90;;;;;;5097471;28;20455;-82
2021/07/29 00:23:36;;;;;;;4.07;3.67;;;19.60;99.90;;;;;;5100797;28;20449;-81
2021/07/29 00:26:03;;;;;;;6.00;4.30;;;19.60;99.90;;;;;;5097361;28;20935;-81
2021/07/29 00:28:30;;;;;;;4.07;3.73;;;19.60;99.90;;;;;;5097108;28;20460;-81
2021/07/29 00:30:58;;;;;;;4.87;4.37;;;19.50;99.90;;;;;;5097640;28;21086;-81
2021/07/29 00:33:25;;;;;;;6.53;3.87;;;19.60;99.90;;;;;;5092611;28;20490;-81
2021/07/29 00:35:52;;;;;;;5.03;4.10;;;19.50;99.90;;;;;;5102308;28;20454;-81
2021/07/29 00:38:19;;;;;;;6.10;4.47;;;19.50;99.90;;;;;;5099804;28;20988;-80
2021/07/29 00:40:46;;;;;;;4.50;4.10;;;19.50;99.90;;;;;;5094557;28;20453;-80
2021/07/29 00:43:15;;;;;;;5.63;3.93;;;19.40;99.90;;;;;;5094538;28;20609;-82
2021/07/29 00:45:43;;;;;;;4.70;4.13;;;19.40;99.90;;;;;;5096053;28;20855;-80
2021/07/29 00:48:13;;;;;;;4.00;3.60;;;19.40;99.90;;;;;;5095137;28;20469;-80
2021/07/29 00:50:40;;;;;;;8.97;4.50;;;19.40;99.90;;;;;;5094487;28;20454;-80
2021/07/29 00:53:09;;;;;;;4.30;3.90;;;19.40;99.90;;;;;;5093971;28;20485;-81
2021/07/29 00:55:36;;;;;;;5.87;3.97;;;19.40;99.90;;;;;;5094446;28;20461;-81
2021/07/29 00:58:03;;;;;;;5.90;3.77;;;19.30;99.90;;;;;;5092451;28;20480;-81
2021/07/29 01:00:31;;;;;;;3.93;3.60;;;19.30;99.90;;;;;;5096449;28;20552;-80
2021/07/29 01:02:58;;;;;;;13.43;3.83;;;19.30;99.90;;;;;;5094875;28;20551;-80
2021/07/29 01:05:26;;;;;;;4.90;4.07;;;19.30;99.90;;;;;;5098252;28;20968;-81
2021/07/29 01:07:53;;;;;;;4.33;3.90;;;19.30;99.90;;;;;;5094132;28;20568;-81
2021/07/29 01:10:21;;;;;;;5.33;4.13;;;19.30;99.90;;;;;;5096644;28;20539;-82
2021/07/29 01:12:48;;;;;;;4.50;3.90;;;19.20;99.90;;;;;;5094414;28;20509;-81
2021/07/29 01:15:15;;;;;;;8.83;3.80;;;19.20;99.90;;;;;;5094497;28;20479;-80
2021/07/29 01:17:42;;;;;;;6.90;3.40;;;19.20;99.90;;;;;;5103870;28;20459;-81
2021/07/29 01:20:10;;;;;;;4.33;3.73;;;19.20;99.90;;;;;;5100542;28;20468;-82
2021/07/29 01:22:39;;;;;;;9.67;3.70;;;19.10;99.90;;;;;;5101137;28;20537;-81
2021/07/29 01:25:09;;;;;;;5.90;3.63;;;19.10;99.90;;;;;;5098985;28;20479;-81
2021/07/29 01:27:37;;;;;;;3.77;3.47;;;19.10;99.90;;;;;;5095733;28;20503;-81
2021/07/29 01:30:06;;;;;;;3.90;3.50;;;19.10;99.90;;;;;;5097412;28;20450;-84
2021/07/29 01:32:32;;;;;;;6.53;3.53;;;19.10;99.90;;;;;;5102414;28;20488;-82
2021/07/29 01:34:59;;;;;;;6.10;3.90;;;19.10;99.90;;;;;;5099048;28;20459;-80
2021/07/29 01:37:27;;;;;;;5.27;2.90;;;19.00;99.90;;;;;;5098371;28;20456;-83
2021/07/29 01:39:55;;;;;;;4.40;3.73;;;19.00;99.90;;;;;;5102204;28;20495;-81
2021/07/29 01:42:22;;;;;;;4.90;3.30;;;19.00;99.90;;;;;;5092210;28;20492;-80
2021/07/29 01:44:49;;;;;;;5.97;3.40;;;19.00;99.90;;;;;;5091344;28;20466;-81
2021/07/29 01:47:16;;;;;;;3.97;3.17;;;19.00;99.90;;;;;;5104753;28;20539;-81
2021/07/29 01:49:43;;;;;;;5.20;3.40;;;19.00;99.90;;;;;;5102550;28;21020;-80
2021/07/29 01:52:10;;;;;;;4.63;3.57;;;19.00;99.90;;;;;;5102184;28;20460;-82
2021/07/29 01:54:37;;;;;;;4.20;3.77;;;19.00;99.90;;;;;;5102453;28;20454;-81
2021/07/29 01:57:07;;;;;;;5.17;3.90;;;19.00;99.90;;;;;;5104509;28;20485;-81
2021/07/29 01:59:35;;;;;;;5.73;3.97;;;19.00;99.90;;;;;;5104517;28;20460;-82
2021/07/29 02:02:02;;;;;;;5.47;3.50;;;18.90;99.90;;;;;;5101670;28;20790;-83
2021/07/29 02:04:29;;;;;;;3.40;3.03;;;18.90;99.90;;;;;;5104638;28;20828;-80
2021/07/29 02:06:56;;;;;;;8.00;3.00;;;18.90;99.90;;;;;;5101906;28;20465;-82
2021/07/29 02:09:23;;;;;;;4.00;3.70;;;18.90;99.90;;;;;;5104415;28;20813;-82
2021/07/29 02:11:52;;;;;;;4.30;3.20;;;18.90;99.90;;;;;;5109525;28;20497;-82
2021/07/29 02:14:21;;;;;;;7.10;3.47;;;18.90;99.90;;;;;;5106066;28;20488;-80
2021/07/29 02:16:48;;;;;;;5.30;3.90;;;18.90;99.90;;;;;;5097864;28;20451;-81
2021/07/29 02:19:15;;;;;;;5.90;3.27;;;18.90;99.90;;;;;;5103349;27;20465;-81
2021/07/29 02:21:42;;;;;;;4.43;3.90;;;18.90;99.90;;;;;;5106003;28;20465;-82
2021/07/29 02:24:09;;;;;;;6.30;4.03;;;18.90;99.90;;;;;;5106942;28;20451;-80
2021/07/29 02:26:36;;;;;;;5.30;4.20;;;18.90;99.90;;;;;;5100821;28;20469;-81
2021/07/29 02:29:03;;;;;;;3.57;3.20;;;18.90;99.90;;;;;;5095800;28;20794;-82
2021/07/29 02:31:31;;;;;;;5.70;3.90;;;18.90;99.90;;;;;;5097166;28;20493;-83
2021/07/29 02:33:58;;;;;;;6.23;3.03;;;18.90;99.90;;;;;;5106448;28;20485;-81
2021/07/29 02:36:25;;;;;;;8.27;3.80;;;18.90;99.90;;;;;;5107231;28;20451;-80
2021/07/29 02:38:52;;;;;;;4.07;3.43;;;18.90;99.90;;;;;;5102349;28;21135;-81
2021/07/29 02:41:20;;;;;;;3.90;3.60;;;18.90;99.90;;;;;;5101815;28;20467;-80
2021/07/29 02:43:48;;;;;;;4.00;3.30;;;18.90;99.90;;;;;;5102383;28;20457;-81
2021/07/29 02:46:15;;;;;;;4.27;3.73;;;18.90;99.90;;;;;;5096941;28;20559;-80
2021/07/29 02:48:43;;;;;;;7.03;3.77;;;18.90;99.90;;;;;;5095227;28;20446;-81
2021/07/29 02:51:10;;;;;;;3.90;3.60;;;18.90;99.90;;;;;;5098736;28;20461;-80
2021/07/29 02:53:37;;;;;;;8.10;3.70;;;18.90;99.90;;;;;;5104497;28;20480;-81
2021/07/29 02:56:05;;;;;;;6.23;4.33;;;18.90;99.90;;;;;;5100952;28;20967;-82
2021/07/29 02:58:32;;;;;;;4.53;3.43;;;18.90;99.90;;;;;;5104010;28;20476;-80
2021/07/29 03:00:59;;;;;;;7.50;3.63;;;18.90;99.90;;;;;;5097230;28;20940;-82
2021/07/29 03:03:26;;;;;;;7.93;4.03;;;18.90;99.90;;;;;;5097835;28;20852;-81
2021/07/29 03:05:54;;;;;;;5.57;4.20;;;18.90;99.90;;;;;;5098634;28;20459;-80
2021/07/29 03:08:21;;;;;;;5.23;4.17;;;18.90;99.90;;;;;;5105520;28;20461;-80
2021/07/29 03:10:48;;;;;;;5.60;3.80;;;18.90;99.90;;;;;;5098034;28;20515;-81
2021/07/29 03:13:16;;;;;;;4.33;3.90;;;18.90;99.90;;;;;;5103519;28;20479;-80
2021/07/29 03:15:43;;;;;;;9.70;4.73;;;18.90;99.90;;;;;;5101009;28;20460;-80
2021/07/29 03:18:10;;;;;;;6.37;3.97;;;18.90;99.90;;;;;;5104550;27;20458;-80
2021/07/29 03:20:37;;;;;;;3.60;3.30;;;18.90;99.90;;;;;;5103717;27;20461;-80
2021/07/29 03:23:05;;;;;;;4.40;3.63;;;18.90;99.90;;;;;;5096493;28;20805;-81
2021/07/29 03:25:33;;;;;;;5.70;3.83;;;18.90;99.90;;;;;;5100693;28;20462;-81
2021/07/29 03:28:00;;;;;;;6.97;4.10;;;18.90;99.90;;;;;;5099626;28;20505;-82
2021/07/29 03:30:27;;;;;;;5.03;4.03;;;18.90;99.90;;;;;;5101249;28;20459;-81
2021/07/29 03:32:54;;;;;;;10.53;4.30;;;18.90;99.90;;;;;;5097203;28;20530;-81
2021/07/29 03:35:22;;;;;;;7.13;3.73;;;18.90;99.90;;;;;;5096768;28;20466;-80
2021/07/29 03:37:49;;;;;;;9.00;5.30;;;18.90;99.90;;;;;;5098285;28;20456;-80
2021/07/29 03:40:18;;;;;;;3.90;3.20;;;18.90;99.90;;;;;;5104048;28;20461;-80
2021/07/29 03:42:44;;;;;;;12.80;3.40;;;18.80;99.90;;;;;;5104467;28;20472;-80
2021/07/29 03:45:12;;;;;;;7.00;3.50;;;18.80;99.90;;;;;;5101142;28;20464;-81
2021/07/29 03:47:39;;;;;;;4.20;3.90;;;18.80;99.90;;;;;;5099500;28;20449;-82
2021/07/29 03:50:07;;;;;;;6.83;3.30;;;18.80;99.90;;;;;;5093449;28;22484;-80
2021/07/29 03:52:37;;;;;;;4.03;3.53;;;18.80;99.90;;;;;;5098081;28;20450;-80
2021/07/29 03:55:04;;;;;;;5.50;3.40;;;18.80;99.90;;;;;;5104318;28;20452;-79
2021/07/29 03:57:33;;;;;;;4.83;3.40;;;18.80;99.90;;;;;;5097781;28;20483;-79
2021/07/29 04:00:01;;;;;;;4.70;3.20;;;18.80;99.90;;;;;;5101366;28;20457;-79
2021/07/29 04:02:29;;;;;;;4.63;2.90;;;18.70;99.90;;;;;;5104820;28;20464;-82
2021/07/29 04:04:56;;;;;;;7.13;3.67;;;18.70;99.90;;;;;;5097294;28;20824;-80
2021/07/29 04:07:23;;;;;;;4.50;3.83;;;18.70;99.90;;;;;;5097604;28;20454;-79
2021/07/29 04:09:51;;;;;;;4.30;3.90;;;18.70;99.90;;;;;;5102536;28;20494;-80
2021/07/29 04:12:18;;;;;;;8.10;3.43;;;18.70;99.90;;;;;;5102496;28;20828;-80
2021/07/29 04:14:46;;;;;;;8.20;3.30;;;18.70;99.90;;;;;;5100311;28;20491;-81
2021/07/29 04:17:13;;;;;;;4.10;3.17;;;18.70;99.90;;;;;;5095754;28;20459;-80
2021/07/29 04:19:40;;;;;;;7.03;3.37;;;18.70;99.90;;;;;;5095944;28;20468;-80
2021/07/29 04:22:08;;;;;;;8.30;3.40;;;18.70;99.90;;;;;;5103883;28;20460;-80
2021/07/29 04:24:35;;;;;;;4.67;3.83;;;18.70;99.90;;;;;;5095048;28;20986;-80
2021/07/29 04:27:03;;;;;;;6.00;3.00;;;18.70;99.90;;;;;;5095391;28;20476;-80
2021/07/29 04:29:32;;;;;;;3.23;2.43;;;18.70;99.90;;;;;;5096972;28;20483;-80
2021/07/29 04:32:01;;;;;;;5.17;3.07;;;18.70;99.90;;;;;;5099281;28;20451;-80
2021/07/29 04:34:28;;;;;;;7.30;3.83;;;18.60;99.90;;;;;;5101878;28;20495;-82
2021/07/29 04:36:55;;;;;;;8.73;3.30;;;18.60;99.90;;;;;;5101200;28;20487;-80
2021/07/29 04:39:22;;;;;;;6.87;2.67;;;18.60;99.90;;;;;;5096863;28;20524;-83
2021/07/29 04:41:49;;;;;;;4.30;3.23;;;18.60;99.90;;;;;;5103711;28;20935;-82
2021/07/29 04:44:17;;;;;;;6.33;3.40;;;18.60;99.90;;;;;;5098726;28;20970;-80
2021/07/29 04:46:45;;;;;;;9.03;3.23;;;18.60;99.90;;;;;;5099692;28;20470;-80
2021/07/29 04:49:18;;;;;;;5.90;3.60;;;18.60;99.90;;;;;;5097926;28;20447;-80
2021/07/29 04:51:46;;;;;;;3.53;3.03;;;18.60;99.90;;;;;;5098723;28;21018;-80
2021/07/29 04:54:14;;;;;;;8.60;3.80;;;18.60;99.90;;;;;;5103124;28;20515;-82
2021/07/29 04:56:41;;;;;;;4.03;3.03;;;18.50;99.90;;;;;;5106017;28;20453;-80
2021/07/29 04:59:09;;;;;;;5.70;3.47;;;18.50;99.90;;;;;;5096643;28;20856;-81
2021/07/29 05:01:39;;;;;;;5.30;3.10;;;18.50;99.90;;;;;;5096905;28;20449;-80
2021/07/29 05:04:06;;;;;;;3.50;2.87;;;18.60;99.90;;;;;;5098605;28;20464;-81
2021/07/29 05:06:37;;;;;;;7.63;3.50;;;18.50;99.90;;;;;;5097529;28;21093;-81
2021/07/29 05:09:05;;;;;;;3.90;3.40;;;18.60;99.90;;;;;;5103622;28;20846;-80
2021/07/29 05:11:32;;;;;;;3.40;2.67;;;18.60;99.90;;;;;;5098913;28;20456;-80
2021/07/29 05:13:59;;;;;;;4.83;3.30;;;18.60;99.90;;;;;;5098686;28;20483;-82
2021/07/29 05:16:26;;;;;;;3.30;2.97;;;18.60;99.90;;;;;;5097977;28;20460;-80
2021/07/29 05:18:53;;;;;;;5.40;3.70;;;18.60;99.90;;;;;;5093931;28;22544;-82
2021/07/29 05:21:21;;;;;;;3.57;3.20;;;18.60;99.90;;;;;;5095758;28;20454;-80
2021/07/29 05:23:49;;;;;;;6.90;3.27;;;18.60;99.90;;;;;;5101378;28;20463;-80
2021/07/29 05:26:17;;;;;;;4.63;3.20;;;18.60;99.90;;;;;;5100564;28;20543;-81
2021/07/29 05:28:45;;;;;;;3.97;3.30;;;18.60;99.90;;;;;;5103208;28;20452;-82
2021/07/29 05:31:13;;;;;;;8.97;3.67;;;18.60;99.90;;;;;;5102487;28;20495;-81
2021/07/29 05:33:41;;;;;;;6.70;3.10;;;18.60;99.90;;;;;;5095001;28;20488;-81
2021/07/29 05:36:09;;;;;;;4.70;3.07;;;18.60;99.90;;;;;;5101208;28;20950;-80
2021/07/29 05:38:36;;;;;;;11.13;3.63;;;18.60;99.90;;;;;;5102199;28;20473;-81
2021/07/29 05:41:09;;;;;;;7.77;3.13;;;18.60;99.90;;;;;;5101078;28;20472;-80
2021/07/29 05:43:36;;;;;;;8.23;3.90;;;18.50;99.90;;;;;;5105626;28;20978;-81
2021/07/29 05:46:09;;;;;;;6.50;3.47;;;18.50;99.90;;;;;;5099497;28;20457;-81
2021/07/29 05:48:35;;;;;;;6.53;4.20;;;18.50;99.90;;;;;;5100863;28;20515;-82
2021/07/29 05:51:03;;;;;;;4.80;3.10;;;18.50;99.90;;;;;;5095957;28;20467;-81
2021/07/29 05:53:30;;;;;;;6.60;3.23;;;18.50;99.90;;;;;;5105735;28;20448;-81
2021/07/29 05:56:01;;;;;;;4.00;3.53;;;18.50;99.90;;;;;;5105227;28;20468;-81
2021/07/29 05:58:30;;;;;;;4.13;3.43;;;18.50;99.90;;;;;;5103128;28;21039;-71
2021/07/29 06:00:57;;;;;;;3.90;2.97;;;18.50;99.90;;;;;;5090825;27;20473;-71
2021/07/29 06:03:24;;;;;;;6.40;3.43;;;18.50;99.90;;;;;;5098845;28;20455;-71
2021/07/29 06:05:55;;;;;;;7.27;3.10;;;18.50;99.90;;;;;;5097132;28;20520;-71
2021/07/29 06:08:22;;;;;;;7.87;3.27;;;18.50;99.90;;;;;;5102116;28;20805;-70
2021/07/29 06:10:49;;;;;;;4.77;3.20;;;18.50;99.90;;;;;;5100215;28;20456;-71
2021/07/29 06:13:16;;;;;;;4.43;3.00;;;18.50;99.90;;;;;;5099149;28;20452;-70
2021/07/29 06:15:44;;;;;;;5.00;2.60;;;18.50;99.90;;;;;;5100934;28;20457;-71
2021/07/29 06:18:13;;;;;;;4.83;2.53;;;18.60;99.90;;;;;;5091891;27;20463;-71
2021/07/29 06:20:41;;;;;;;6.43;3.10;;;18.60;99.90;;;;;;5101083;27;20461;-72
2021/07/29 06:23:08;;;;;;;7.23;2.93;;;18.60;99.90;;;;;;5101642;28;20469;-71
2021/07/29 06:25:34;;;;;;;5.60;3.17;;;18.60;99.90;;;;;;5100563;28;20461;-71
2021/07/29 06:28:01;;;;;;;7.20;3.30;;;18.60;99.90;;;;;;5093434;28;20843;-71
2021/07/29 06:30:30;;;;;;;5.60;3.17;;;18.60;99.90;;;;;;5096360;28;20457;-72
2021/07/29 06:32:59;;;;;;;7.73;3.90;;;18.70;99.90;;;;;;5096314;28;20466;-71
2021/07/29 06:35:28;;;;;;;7.97;3.77;;;18.70;99.90;;;;;;5096071;28;20489;-71
2021/07/29 06:37:57;;;;;;;10.30;3.00;;;18.70;99.90;;;;;;5092729;28;20460;-71
2021/07/29 06:40:24;;;;;;;6.13;3.30;;;18.70;99.90;;;;;;5093108;28;20464;-72
2021/07/29 06:42:51;;;;;;;5.23;2.73;;;18.80;99.90;;;;;;5094026;28;20838;-71
2021/07/29 06:45:18;;;;;;;2.87;2.50;;;18.80;99.90;;;;;;5096901;28;20460;-72
2021/07/29 06:47:45;;;;;;;7.60;3.33;;;18.90;99.90;;;;;;5095924;28;20462;-71
2021/07/29 06:50:14;;;;;;;4.53;3.20;;;18.90;99.90;;;;;;5094791;28;20463;-72
2021/07/29 06:52:41;;;;;;;6.40;2.97;;;18.90;99.90;;;;;;5102724;28;20459;-71
2021/07/29 06:55:08;;;;;;;10.73;3.73;;;19.00;99.90;;;;;;5092173;28;20826;-71
2021/07/29 06:57:35;;;;;;;6.53;2.87;;;19.00;99.90;;;;;;5097328;28;20569;-71
2021/07/29 07:00:02;;;;;;;8.10;3.43;;;19.10;99.90;;;;;;5096601;28;20521;-71
2021/07/29 07:02:29;;;;;;;9.10;2.97;;;19.10;99.90;;;;;;5097718;28;20457;-71
2021/07/29 07:04:56;;;;;;;3.50;2.80;;;19.10;99.90;;;;;;5097246;28;20463;-71
2021/07/29 07:07:24;;;;;;;5.80;3.10;;;19.20;99.90;;;;;;5096695;28;20452;-72
2021/07/29 07:09:50;;;;;;;9.10;3.20;;;19.20;99.90;;;;;;5094037;28;20468;-71
2021/07/29 07:12:17;;;;;;;6.13;2.47;;;19.30;99.90;;;;;;5095567;28;20463;-71
2021/07/29 07:14:44;;;;;;;3.63;2.77;;;19.30;99.90;;;;;;5099234;28;21281;-71
2021/07/29 07:17:11;;;;;;;4.43;2.83;;;19.40;99.90;;;;;;5093358;28;20457;-71
2021/07/29 07:19:38;;;;;;;7.27;3.47;;;19.40;99.90;;;;;;5099224;27;20541;-72
2021/07/29 07:22:06;;;;;;;3.40;2.33;;;19.40;99.90;;;;;;5097648;28;20487;-72
2021/07/29 07:24:37;;;;;;;5.40;3.40;;;19.40;99.90;;;;;;5093807;28;20461;-71
2021/07/29 07:27:05;;;;;;;5.27;3.00;;;19.50;99.90;;;;;;5091608;28;20452;-71
2021/07/29 07:29:33;;;;;;;6.93;2.70;;;19.50;99.90;;;;;;5096882;28;20461;-82
2021/07/29 07:32:00;;;;;;;5.70;2.80;;;19.50;99.90;;;;;;5096163;28;20854;-83
2021/07/29 07:34:27;;;;;;;6.07;2.93;;;19.50;99.90;;;;;;5094616;28;21022;-80
2021/07/29 07:36:55;;;;;;;11.57;2.80;;;19.50;99.90;;;;;;5094932;28;20465;-82
2021/07/29 07:39:22;;;;;;;5.87;3.30;;;19.60;99.90;;;;;;5101390;28;21000;-82
2021/07/29 07:41:50;;;;;;;3.77;2.90;;;19.50;99.90;;;;;;5096389;28;20468;-81
2021/07/29 07:44:17;;;;;;;5.03;2.90;;;19.60;99.90;;;;;;5096082;28;20933;-82
2021/07/29 07:46:44;;;;;;;13.90;3.40;;;19.50;99.90;;;;;;5097419;28;20507;-83
2021/07/29 07:49:12;;;;;;;3.90;3.23;;;19.60;99.90;;;;;;5093005;28;20453;-80
2021/07/29 07:51:40;;;;;;;8.60;3.23;;;19.60;99.90;;;;;;5101485;28;20468;-81
2021/07/29 07:54:08;;;;;;;5.50;2.90;;;19.60;99.90;;;;;;5097750;28;20461;-81
2021/07/29 07:56:35;;;;;;;6.87;2.90;;;19.60;99.90;;;;;;5092972;28;20457;-81
2021/07/29 07:59:04;;;;;;;4.03;2.80;;;19.60;99.90;;;;;;5098390;28;20523;-81
2021/07/29 08:01:30;;;;;;;3.37;2.53;;;19.60;99.90;;;;;;5093916;28;20472;-82
2021/07/29 08:03:57;;;;;;;6.43;2.80;;;19.70;99.90;;;;;;5100869;28;20457;-81
2021/07/29 08:06:24;;;;;;;4.80;2.63;;;19.70;99.90;;;;;;5094006;28;20460;-81
2021/07/29 08:08:51;;;;;;;3.90;2.70;;;19.80;99.90;;;;;;5093986;28;20466;-82
2021/07/29 08:11:17;;;;;;;4.00;2.53;;;19.80;99.90;;;;;;5098305;28;20454;-81
2021/07/29 08:13:44;;;;;;;5.47;2.90;;;19.80;99.90;;;;;;5096351;28;20579;-81
2021/07/29 08:16:12;;;;;;;8.30;3.23;;;19.90;99.90;;;;;;5088401;28;20497;-82
2021/07/29 08:18:39;;;;;;;4.80;3.20;;;19.90;99.90;;;;;;5093828;27;20466;-81
2021/07/29 08:21:12;;;;;;;9.77;4.57;;;20.00;99.90;;;;;;5093427;28;20464;-81
2021/07/29 08:23:39;;;;;;;4.50;2.60;;;20.10;99.90;;;;;;5092478;28;20450;-81
2021/07/29 08:26:07;;;;;;;4.70;2.53;;;20.20;99.90;;;;;;5095679;28;20474;-80
2021/07/29 08:28:34;;;;;;;5.57;2.87;;;20.30;99.90;;;;;;5093865;28;20748;-80
2021/07/29 08:31:01;;;;;;;12.60;2.50;;;20.40;99.90;;;;;;5096022;28;20511;-80
2021/07/29 08:33:29;;;;;;;7.63;3.17;;;20.50;99.90;;;;;;5096370;28;20825;-81
2021/07/29 08:35:56;;;;;;;2.97;2.20;;;20.60;99.90;;;;;;5093457;28;20492;-81
2021/07/29 08:38:23;;;;;;;2.70;2.40;;;20.60;99.90;;;;;;5093452;28;20832;-82
2021/07/29 08:40:53;;;;;;;6.10;2.50;;;20.60;99.90;;;;;;5094035;28;20473;-81
2021/07/29 08:43:21;;;;;;;4.50;4.03;;;20.60;99.90;;;;;;5091507;28;20500;-83
2021/07/29 08:45:52;;;;;;;7.10;3.37;;;20.60;99.90;;;;;;5097555;28;20503;-81
2021/07/29 08:48:23;;;;;;;3.60;2.40;;;20.70;99.90;;;;;;5091570;28;20463;-83
2021/07/29 08:50:52;;;;;;;6.30;2.80;;;20.70;99.90;;;;;;5090197;28;20458;-81
2021/07/29 08:53:19;;;;;;;4.73;3.00;;;20.80;99.90;;;;;;5094196;28;20494;-82
2021/07/29 08:55:49;;;;;;;5.63;3.10;;;20.80;99.90;;;;;;5093970;28;20489;-83
2021/07/29 08:58:16;;;;;;;8.30;2.57;;;20.90;99.90;;;;;;5093329;28;20561;-82
2021/07/29 09:01:00;;;;;;;3.40;2.40;;;20.90;99.90;;;;;;5091374;28;20461;-82
2021/07/29 09:03:27;;;;;;;8.47;2.53;;;20.90;99.90;;;;;;5092416;28;20896;-83
2021/07/29 09:06:05;;;;;;;3.13;2.43;;;20.90;99.90;;;;;;5093862;28;20462;-83
2021/07/29 09:08:48;;;;;;;6.97;2.80;;;21.00;99.90;;;;;;5097641;28;20817;-82
2021/07/29 09:11:35;;;;;;;4.33;2.77;;;21.10;99.90;;;;;;5094046;28;20823;-83
2021/07/29 09:14:12;;;;;;;6.87;2.93;;;21.10;99.90;;;;;;5091888;28;21012;-83
2021/07/29 09:16:58;;;;;;;6.67;2.77;;;21.10;99.90;;;;;;5097785;28;20565;-82
2021/07/29 09:19:34;;;;;;;3.40;2.80;;;21.00;99.90;;;;;;5094080;28;20769;-82
2021/07/29 09:22:14;;;;;;;6.33;2.20;;;21.00;99.90;;;;;;5093950;28;20536;-82
2021/07/29 09:25:12;;;;;;;2.80;2.43;;;21.00;99.90;;;;;;5090309;28;20457;-82
2021/07/29 09:27:46;;;;;;;8.03;3.00;;;21.00;99.90;;;;;;5088922;28;20959;-82
2021/07/29 09:30:19;;;;;;;4.93;2.70;;;21.10;99.90;;;;;;5096112;28;20471;-83
2021/07/29 09:32:58;;;;;;;3.63;2.63;;;21.10;99.90;;;;;;5092869;28;20734;-82
2021/07/29 09:35:33;;;;;;;9.23;2.83;;;21.10;99.90;;;;;;5101149;28;21045;-82
2021/07/29 09:38:03;;;;;;;4.47;2.83;;;21.00;99.90;;;;;;5099921;28;20874;-82
2021/07/29 09:40:42;;;;;;;5.47;2.93;;;21.00;99.90;;;;;;5084459;28;20466;-82
2021/07/29 09:43:11;;;;;;;4.77;2.33;;;21.10;99.90;;;;;;5088507;28;20467;-83
2021/07/29 09:45:39;;;;;;;6.60;2.37;;;21.20;99.90;;;;;;5089456;28;21016;-82
2021/07/29 09:48:07;;;;;;;11.17;2.77;;;21.20;99.90;;;;;;5093165;28;20446;-83
2021/07/29 09:50:41;;;;;;;6.80;3.30;;;21.20;99.90;;;;;;5093582;28;20461;-82
2021/07/29 09:53:10;;;;;;;8.93;2.63;;;21.20;99.90;;;;;;5096371;28;20488;-81
2021/07/29 09:55:37;;;;;;;6.43;2.50;;;21.30;99.90;;;;;;5088702;28;20492;-84
2021/07/29 09:58:05;;;;;;;4.03;2.77;;;21.30;99.90;;;;;;5092780;28;20490;-82
2021/07/29 10:00:35;;;;;;;6.90;2.90;;;21.40;99.90;;;;;;5098304;28;20469;-82
2021/07/29 10:03:04;;;;;;;4.50;3.33;;;21.50;99.90;;;;;;5083950;28;20556;-81
2021/07/29 10:05:38;;;;;;;4.30;2.50;;;21.60;99.90;;;;;;5095947;28;20466;-80
2021/07/29 10:08:08;;;;;;;3.90;2.60;;;21.70;99.90;;;;;;5091073;28;20898;-81
2021/07/29 10:10:37;;;;;;;5.30;3.47;;;21.80;99.90;;;;;;5093511;28;20467;-84
2021/07/29 10:13:04;;;;;;;4.40;3.10;;;21.90;99.90;;;;;;5093587;28;20464;-81
2021/07/29 10:15:42;;;;;;;9.93;3.10;;;22.00;99.90;;;;;;5104281;28;20480;-81
2021/07/29 10:18:10;;;;;;;4.80;2.70;;;22.00;99.90;;;;;;5099594;27;21009;-82
2021/07/29 10:20:38;;;;;;;3.23;2.77;;;22.10;99.90;;;;;;5104645;28;20463;-83
2021/07/29 10:23:32;;;;;;;4.23;3.10;;;22.20;99.90;;;;;;5091819;28;20454;-83
2021/07/29 10:26:09;;;;;;;3.40;3.00;;;22.30;99.90;;;;;;5102063;28;20540;-82
2021/07/29 10:28:39;;;;;;;4.37;3.00;;;22.40;99.90;;;;;;5092831;28;20540;-81
2021/07/29 10:31:07;;;;;;;4.70;3.27;;;22.50;99.90;;;;;;5096574;28;20457;-83
2021/07/29 10:33:34;;;;;;;4.70;2.60;;;22.60;99.90;;;;;;5094810;28;20461;-81
2021/07/29 10:36:02;;;;;;;5.33;2.73;;;22.60;99.90;;;;;;5098224;28;20503;-82
2021/07/29 10:38:47;;;;;;;3.80;2.70;;;22.60;99.90;;;;;;5099619;28;20489;-81
2021/07/29 10:41:53;;;;;;;8.17;2.90;;;22.70;99.90;;;;;;5096855;28;20449;-81
2021/07/29 10:44:46;;;;;;;8.60;2.93;;;22.70;99.90;;;;;;5103491;28;20452;-82
2021/07/29 10:47:18;;;;;;;5.43;3.20;;;22.80;99.90;;;;;;5100462;28;20534;-83
2021/07/29 10:50:08;;;;;;;3.17;2.63;;;23.00;99.90;;;;;;5098527;28;21265;-82
2021/07/29 10:52:37;;;;;;;4.60;2.83;;;22.90;99.70;;;;;;5095410;28;20461;-82
2021/07/29 10:55:04;;;;;;;7.50;3.50;;;23.00;99.90;;;;;;5096759;28;20468;-83
2021/07/29 10:57:32;;;;;;;4.00;2.50;;;23.00;99.90;;;;;;5091369;28;20483;-81
2021/07/29 11:00:00;;;;;;;8.53;3.67;;;23.10;98.90;;;;;;5096880;28;20461;-82
2021/07/29 11:02:39;;;;;;;2.90;2.33;;;23.10;99.50;;;;;;5102782;28;20962;-83
2021/07/29 11:05:09;;;;;;;4.80;2.70;;;23.20;99.00;;;;;;5097665;28;20530;-82
2021/07/29 11:07:41;;;;;;;3.93;2.60;;;23.30;98.80;;;;;;5103243;28;20572;-82
2021/07/29 11:10:10;;;;;;;4.30;2.73;;;23.30;98.80;;;;;;5094179;28;20463;-81
2021/07/29 11:12:39;;;;;;;2.63;2.43;;;23.40;98.50;;;;;;5091789;28;20457;-82
2021/07/29 11:15:08;;;;;;;4.63;2.37;;;23.50;98.50;;;;;;5092209;28;20465;-81
2021/07/29 11:17:35;;;;;;;4.80;2.60;;;23.50;97.70;;;;;;5095812;28;20445;-81
2021/07/29 11:20:05;;;;;;;5.90;2.80;;;23.50;97.80;;;;;;5098591;28;20545;-87
2021/07/29 11:22:41;;;;;;;4.20;3.03;;;23.50;97.20;;;;;;5093774;28;20458;-83
2021/07/29 11:25:09;;;;;;;6.33;2.40;;;23.50;96.70;;;;;;5089113;28;20954;-83
2021/07/29 11:27:35;;;;;;;8.17;2.90;;;23.50;97.40;;;;;;5095064;28;20462;-82
2021/07/29 11:30:05;;;;;;;6.20;2.97;;;23.40;97.00;;;;;;5101536;28;20460;-82
2021/07/29 11:32:38;;;;;;;7.17;2.80;;;23.50;97.70;;;;;;5096909;28;21023;-82
2021/07/29 11:35:06;;;;;;;5.27;2.73;;;23.50;97.20;;;;;;5096190;28;20612;-82
2021/07/29 11:37:38;;;;;;;2.33;2.13;;;23.40;97.00;;;;;;5098671;28;20556;-85
2021/07/29 11:40:07;;;;;;;7.30;3.57;;;23.50;97.70;;;;;;5097222;28;20492;-84
2021/07/29 11:42:38;;;;;;;3.47;2.70;;;23.50;97.50;;;;;;5097278;28;20511;-82
2021/07/29 11:45:22;;;;;;;4.37;2.60;;;23.50;98.20;;;;;;5102230;28;20457;-82
2021/07/29 11:47:50;;;;;;;3.87;2.73;;;23.60;98.70;;;;;;5095429;28;20453;-82
2021/07/29 11:50:17;;;;;;;3.20;2.80;;;23.60;98.70;;;;;;5097374;28;20457;-82
2021/07/29 11:52:52;;;;;;;8.33;3.63;;;23.80;99.00;;;;;;5097640;28;20465;-82
2021/07/29 11:55:20;;;;;;;4.20;2.60;;;23.80;98.50;;;;;;5101302;28;20461;-82
2021/07/29 11:57:48;;;;;;;4.10;2.53;;;23.80;98.20;;;;;;5099591;28;20496;-81
2021/07/29 12:00:27;;;;;;;5.83;2.90;;;23.70;98.00;;;;;;5094454;28;20476;-82
2021/07/29 12:02:55;;;;;;;2.93;2.47;;;23.70;97.90;;;;;;5094599;28;20497;-82
2021/07/29 12:05:23;;;;;;;4.73;3.10;;;23.60;97.00;;;;;;5093451;28;20460;-84
2021/07/29 12:07:51;;;;;;;3.53;2.63;;;23.60;96.60;;;;;;5093981;28;20463;-83
2021/07/29 12:10:20;;;;;;;6.10;2.60;;;23.50;96.30;;;;;;5098404;28;20464;-83
2021/07/29 12:12:47;;;;;;;6.10;2.97;;;23.50;96.60;;;;;;5092796;28;20462;-80
2021/07/29 12:15:16;;;;;;;6.00;2.60;;;23.40;96.70;;;;;;5090058;28;20794;-83
2021/07/29 12:17:43;;;;;;;3.83;2.50;;;23.40;96.70;;;;;;5088463;28;21251;-80
2021/07/29 12:20:12;;;;;;;4.13;2.93;;;23.50;96.40;;;;;;5097990;27;20453;-83
2021/07/29 12:22:42;;;;;;;5.07;2.60;;;23.50;95.70;;;;;;5097272;28;20461;-80
2021/07/29 12:25:11;;;;;;;3.70;2.70;;;23.60;96.20;;;;;;5098564;28;20860;-81
2021/07/29 12:27:45;;;;;;;3.63;2.63;;;23.60;96.00;;;;;;5094628;28;20484;-80
2021/07/29 12:30:33;;;;;;;3.70;2.13;;;23.60;95.00;;;;;;5097619;28;20578;-82
2021/07/29 12:33:08;;;;;;;5.53;2.70;;;23.60;95.20;;;;;;5092755;28;20458;-82
2021/07/29 12:35:35;;;;;;;4.87;2.50;;;23.60;95.80;;;;;;5090010;28;20497;-80
2021/07/29 12:38:02;;;;;;;4.30;3.10;;;23.50;95.60;;;;;;5099168;28;21140;-80
2021/07/29 12:40:31;;;;;;;5.40;3.20;;;23.40;95.50;;;;;;5092130;28;20465;-80
2021/07/29 12:43:21;;;;;;;3.97;2.87;;;23.30;95.60;;;;;;5097616;28;20449;-80
2021/07/29 12:45:52;;;;;;;6.07;2.90;;;23.30;96.00;;;;;;5098006;28;20457;-79
2021/07/29 12:48:19;;;;;;;5.73;2.83;;;23.20;96.10;;;;;;5091060;28;20465;-81
2021/07/29 12:50:45;;;;;;;5.43;3.00;;;23.20;96.40;;;;;;5092823;28;20561;-80
2021/07/29 12:53:14;;;;;;;3.43;2.90;;;23.30;96.30;;;;;;5095888;28;20945;-80
2021/07/29 12:55:42;;;;;;;6.10;3.13;;;23.30;96.30;;;;;;5098116;28;20503;-80
2021/07/29 12:58:10;;;;;;;4.73;2.80;;;23.30;96.20;;;;;;5097720;28;20478;-80